EXS71RD EGPH-LGSK
Flight info
| Callsign | EXS71RD |
|---|---|
| Flight time | 3h 35m |
| Altitude | 35000 |
| Route | TLA DCT SUSIS DCT BADGA DCT SUTEB DCT GASTU DCT NOMKA DCT ABERU T703 DEXIT DCT GOTAR DCT ADULA DCT RAMAP DCT MAKED UL617 IBIDI |
| Aircraft | B738/M-SDE2E3FGHIRWXY/LB1 |
Departure
| Time | 2026-04-15 11:06 |
|---|---|
| Airport | Edinburgh Airport (EGPH) |
Arrival
| Time | 2026-04-15 14:41 |
|---|---|
| Airport | Skiathos Island National Airport (LGSK) |
| Time | Latitude | Longitude | Altitude | Speed | Heading |
|---|---|---|---|---|---|
| 2026-04-15 10:50 | 55.94657 | -3.36618 | 115 ft | 0 kts | 89° |
| 2026-04-15 10:55 | 55.94657 | -3.36619 | 115 ft | 1 kts | 89° |
| 2026-04-15 10:56 | 55.94656 | -3.36661 | 112 ft | 4 kts | 89° |
| 2026-04-15 10:56 | 55.94655 | -3.36704 | 112 ft | 4 kts | 70° |
| 2026-04-15 10:56 | 55.94641 | -3.36732 | 112 ft | 4 kts | 9° |
| 2026-04-15 10:56 | 55.94622 | -3.36735 | 114 ft | 1 kts | 360° |
| 2026-04-15 10:57 | 55.94619 | -3.36735 | 114 ft | 0 kts | 360° |
| 2026-04-15 11:00 | 55.94621 | -3.36735 | 115 ft | 1 kts | 360° |
| 2026-04-15 11:00 | 55.94628 | -3.36735 | 113 ft | 3 kts | 360° |
| 2026-04-15 11:00 | 55.94676 | -3.36736 | 115 ft | 8 kts | 359° |
| 2026-04-15 11:01 | 55.94747 | -3.36738 | 115 ft | 12 kts | 355° |
| 2026-04-15 11:01 | 55.94803 | -3.36775 | 115 ft | 10 kts | 352° |
| 2026-04-15 11:01 | 55.94855 | -3.36781 | 115 ft | 13 kts | 357° |
| 2026-04-15 11:01 | 55.94916 | -3.36825 | 112 ft | 8 kts | 336° |
| 2026-04-15 11:02 | 55.94967 | -3.36781 | 114 ft | 10 kts | 56° |
| 2026-04-15 11:02 | 55.95009 | -3.36655 | 114 ft | 13 kts | 59° |
| 2026-04-15 11:02 | 55.95061 | -3.36495 | 112 ft | 16 kts | 60° |
| 2026-04-15 11:02 | 55.95127 | -3.36305 | 113 ft | 19 kts | 57° |
| 2026-04-15 11:03 | 55.95202 | -3.36083 | 113 ft | 22 kts | 60° |
| 2026-04-15 11:03 | 55.95287 | -3.35831 | 112 ft | 25 kts | 59° |
| 2026-04-15 11:03 | 55.95378 | -3.35560 | 114 ft | 25 kts | 58° |
| 2026-04-15 11:03 | 55.95434 | -3.35415 | 115 ft | 9 kts | 36° |
| 2026-04-15 11:04 | 55.95492 | -3.35433 | 115 ft | 9 kts | 329° |
| 2026-04-15 11:04 | 55.95554 | -3.35501 | 111 ft | 12 kts | 323° |
| 2026-04-15 11:04 | 55.95552 | -3.35618 | 111 ft | 6 kts | 238° |
| 2026-04-15 11:04 | 55.95552 | -3.35619 | 110 ft | 0 kts | 238° |
| 2026-04-15 11:05 | 55.95547 | -3.35632 | 111 ft | 7 kts | 237° |
| 2026-04-15 11:05 | 55.95400 | -3.36064 | 110 ft | 77 kts | 238° |
| 2026-04-15 11:05 | 55.95014 | -3.37202 | 110 ft | 138 kts | 239° |
| 2026-04-15 11:06 | 55.94449 | -3.38911 | 325 ft | 173 kts | 239° |
| 2026-04-15 11:06 | 55.93924 | -3.40814 | 1306 ft | 166 kts | 234° |
| 2026-04-15 11:06 | 55.93368 | -3.42668 | 2075 ft | 172 kts | 229° |
| 2026-04-15 11:06 | 55.92655 | -3.44544 | 2366 ft | 194 kts | 227° |
| 2026-04-15 11:07 | 55.91872 | -3.46615 | 2697 ft | 208 kts | 229° |
| 2026-04-15 11:07 | 55.91074 | -3.48804 | 3205 ft | 213 kts | 229° |
| 2026-04-15 11:07 | 55.90268 | -3.51035 | 3817 ft | 216 kts | 230° |
| 2026-04-15 11:07 | 55.89140 | -3.52800 | 4199 ft | 221 kts | 196° |
| 2026-04-15 11:08 | 55.87604 | -3.53153 | 4975 ft | 226 kts | 183° |
| 2026-04-15 11:08 | 55.86009 | -3.52965 | 5654 ft | 233 kts | 177° |
| 2026-04-15 11:08 | 55.84387 | -3.52643 | 5953 ft | 236 kts | 176° |
| 2026-04-15 11:08 | 55.82760 | -3.52333 | 5985 ft | 235 kts | 177° |
| 2026-04-15 11:09 | 55.81121 | -3.52040 | 6400 ft | 237 kts | 177° |
| 2026-04-15 11:09 | 55.79503 | -3.51477 | 7114 ft | 244 kts | 165° |
| 2026-04-15 11:09 | 55.78044 | -3.49798 | 7782 ft | 260 kts | 138° |
| 2026-04-15 11:09 | 55.77044 | -3.47031 | 8532 ft | 274 kts | 119° |
| 2026-04-15 11:10 | 55.76619 | -3.43692 | 9277 ft | 287 kts | 103° |
| 2026-04-15 11:10 | 55.76443 | -3.40091 | 10030 ft | 292 kts | 101° |
| 2026-04-15 11:10 | 55.76305 | -3.36430 | 10277 ft | 312 kts | 99° |
| 2026-04-15 11:10 | 55.76159 | -3.32439 | 10445 ft | 335 kts | 98° |
| 2026-04-15 11:11 | 55.76003 | -3.28184 | 10611 ft | 355 kts | 98° |
| 2026-04-15 11:11 | 55.75834 | -3.23684 | 10766 ft | 375 kts | 98° |
| 2026-04-15 11:11 | 55.75653 | -3.18983 | 11158 ft | 386 kts | 98° |
| 2026-04-15 11:11 | 55.75466 | -3.14206 | 11773 ft | 389 kts | 99° |
| 2026-04-15 11:12 | 55.75272 | -3.09386 | 12467 ft | 391 kts | 99° |
| 2026-04-15 11:12 | 55.75075 | -3.04566 | 13135 ft | 393 kts | 99° |
| 2026-04-15 11:12 | 55.74868 | -2.99707 | 13778 ft | 396 kts | 99° |
| 2026-04-15 11:12 | 55.74656 | -2.94815 | 14315 ft | 399 kts | 101° |
| 2026-04-15 11:13 | 55.74439 | -2.89948 | 14833 ft | 403 kts | 101° |
| 2026-04-15 11:13 | 55.74219 | -2.84979 | 15431 ft | 405 kts | 101° |
| 2026-04-15 11:13 | 55.73996 | -2.79983 | 15957 ft | 407 kts | 101° |
| 2026-04-15 11:13 | 55.73768 | -2.74946 | 16457 ft | 411 kts | 100° |
| 2026-04-15 11:14 | 55.73536 | -2.69856 | 16976 ft | 415 kts | 100° |
| 2026-04-15 11:14 | 55.73302 | -2.64737 | 17526 ft | 418 kts | 101° |
| 2026-04-15 11:14 | 55.73063 | -2.59582 | 18053 ft | 421 kts | 101° |
| 2026-04-15 11:14 | 55.72819 | -2.54399 | 18498 ft | 424 kts | 101° |
| 2026-04-15 11:15 | 55.72571 | -2.49163 | 18941 ft | 426 kts | 101° |
| 2026-04-15 11:15 | 55.72319 | -2.43906 | 19395 ft | 429 kts | 101° |
| 2026-04-15 11:15 | 55.72064 | -2.38605 | 19825 ft | 432 kts | 101° |
| 2026-04-15 11:15 | 55.71805 | -2.33283 | 20260 ft | 435 kts | 101° |
| 2026-04-15 11:16 | 55.71542 | -2.27927 | 20673 ft | 437 kts | 101° |
| 2026-04-15 11:16 | 55.71274 | -2.22534 | 21049 ft | 440 kts | 101° |
| 2026-04-15 11:16 | 55.71006 | -2.17167 | 21377 ft | 444 kts | 101° |
| 2026-04-15 11:16 | 55.70730 | -2.11696 | 21781 ft | 447 kts | 101° |
| 2026-04-15 11:17 | 55.70450 | -2.06195 | 22198 ft | 449 kts | 101° |
| 2026-04-15 11:17 | 55.70167 | -2.00658 | 22604 ft | 451 kts | 101° |
| 2026-04-15 11:17 | 55.69879 | -1.95091 | 22977 ft | 453 kts | 101° |
| 2026-04-15 11:17 | 55.69587 | -1.89503 | 23332 ft | 456 kts | 101° |
| 2026-04-15 11:18 | 55.69291 | -1.83901 | 23641 ft | 458 kts | 101° |
| 2026-04-15 11:18 | 55.68991 | -1.78264 | 23968 ft | 460 kts | 101° |
| 2026-04-15 11:18 | 55.68692 | -1.72687 | 24275 ft | 461 kts | 101° |
| 2026-04-15 11:18 | 55.68382 | -1.66947 | 24535 ft | 463 kts | 101° |
| 2026-04-15 11:19 | 55.68074 | -1.61314 | 24800 ft | 466 kts | 101° |
| 2026-04-15 11:19 | 55.67759 | -1.55589 | 25085 ft | 468 kts | 101° |
| 2026-04-15 11:19 | 55.67440 | -1.49846 | 25374 ft | 469 kts | 101° |
| 2026-04-15 11:19 | 55.67117 | -1.44072 | 25656 ft | 471 kts | 101° |
| 2026-04-15 11:20 | 55.66791 | -1.38308 | 26013 ft | 470 kts | 102° |
| 2026-04-15 11:20 | 55.66460 | -1.32545 | 26434 ft | 469 kts | 102° |
| 2026-04-15 11:20 | 55.66128 | -1.26809 | 26821 ft | 468 kts | 102° |
| 2026-04-15 11:20 | 55.65795 | -1.21051 | 27082 ft | 470 kts | 102° |
| 2026-04-15 11:21 | 55.65459 | -1.15271 | 27321 ft | 472 kts | 102° |
| 2026-04-15 11:21 | 55.65120 | -1.09476 | 27533 ft | 474 kts | 102° |
| 2026-04-15 11:21 | 55.64773 | -1.03627 | 27702 ft | 478 kts | 102° |
| 2026-04-15 11:21 | 55.64424 | -0.97772 | 28014 ft | 478 kts | 102° |
| 2026-04-15 11:22 | 55.64078 | -0.92003 | 28451 ft | 476 kts | 102° |
| 2026-04-15 11:22 | 55.63727 | -0.86200 | 28911 ft | 473 kts | 102° |
| 2026-04-15 11:22 | 55.63369 | -0.80338 | 29276 ft | 473 kts | 102° |
| 2026-04-15 11:22 | 55.63015 | -0.74622 | 29580 ft | 473 kts | 102° |
| 2026-04-15 11:23 | 55.62654 | -0.68830 | 29917 ft | 473 kts | 102° |
| 2026-04-15 11:23 | 55.62292 | -0.63056 | 30251 ft | 472 kts | 103° |
| 2026-04-15 11:23 | 55.61928 | -0.57294 | 30554 ft | 471 kts | 103° |
| 2026-04-15 11:23 | 55.61561 | -0.51528 | 30824 ft | 471 kts | 103° |
| 2026-04-15 11:24 | 55.61193 | -0.45775 | 31077 ft | 471 kts | 103° |
| 2026-04-15 11:24 | 55.60820 | -0.40012 | 31385 ft | 470 kts | 103° |
| 2026-04-15 11:24 | 55.60486 | -0.34258 | 31664 ft | 472 kts | 100° |
| 2026-04-15 11:24 | 55.60460 | -0.28415 | 31930 ft | 477 kts | 95° |
| 2026-04-15 11:25 | 55.60577 | -0.22543 | 32200 ft | 478 kts | 94° |
| 2026-04-15 11:25 | 55.60736 | -0.16667 | 32463 ft | 478 kts | 94° |
| 2026-04-15 11:25 | 55.60895 | -0.10860 | 32707 ft | 477 kts | 94° |
| 2026-04-15 11:25 | 55.61043 | -0.04978 | 32970 ft | 477 kts | 95° |
| 2026-04-15 11:26 | 55.61172 | 0.00873 | 33173 ft | 476 kts | 94° |
| 2026-04-15 11:26 | 55.61285 | 0.06747 | 33266 ft | 480 kts | 95° |
| 2026-04-15 11:26 | 55.61388 | 0.12681 | 33438 ft | 481 kts | 95° |
| 2026-04-15 11:26 | 55.61485 | 0.18583 | 33744 ft | 479 kts | 95° |
| 2026-04-15 11:27 | 55.61578 | 0.24466 | 34053 ft | 477 kts | 95° |
| 2026-04-15 11:27 | 55.61667 | 0.30254 | 34262 ft | 477 kts | 95° |
| 2026-04-15 11:27 | 55.61754 | 0.36195 | 34425 ft | 477 kts | 95° |
| 2026-04-15 11:27 | 55.61836 | 0.42006 | 34596 ft | 478 kts | 95° |
| 2026-04-15 11:28 | 55.61918 | 0.47877 | 34810 ft | 477 kts | 95° |
| 2026-04-15 11:28 | 55.61997 | 0.53764 | 34945 ft | 478 kts | 95° |
| 2026-04-15 11:28 | 55.62146 | 0.65607 | 34941 ft | 482 kts | 95° |
| 2026-04-15 11:29 | 55.62287 | 0.77483 | 34947 ft | 482 kts | 95° |
| 2026-04-15 11:29 | 55.62417 | 0.89302 | 34948 ft | 482 kts | 95° |
| 2026-04-15 11:30 | 55.62535 | 1.01172 | 34967 ft | 482 kts | 95° |
| 2026-04-15 11:30 | 55.62641 | 1.13065 | 34931 ft | 482 kts | 95° |
| 2026-04-15 11:31 | 55.62735 | 1.24926 | 34966 ft | 482 kts | 94° |
| 2026-04-15 11:31 | 55.62819 | 1.36799 | 34982 ft | 482 kts | 95° |
| 2026-04-15 11:32 | 55.62890 | 1.48588 | 34984 ft | 482 kts | 95° |
| 2026-04-15 11:32 | 55.62949 | 1.60464 | 34992 ft | 483 kts | 95° |
| 2026-04-15 11:33 | 55.62998 | 1.72359 | 34967 ft | 483 kts | 94° |
| 2026-04-15 11:33 | 55.63036 | 1.84286 | 34998 ft | 484 kts | 94° |
| 2026-04-15 11:34 | 55.63062 | 1.96136 | 35006 ft | 485 kts | 94° |
| 2026-04-15 11:34 | 55.63076 | 2.08092 | 35011 ft | 486 kts | 94° |
| 2026-04-15 11:35 | 55.63079 | 2.20085 | 35010 ft | 487 kts | 94° |
| 2026-04-15 11:35 | 55.63070 | 2.32102 | 35011 ft | 489 kts | 94° |
| 2026-04-15 11:36 | 55.63051 | 2.44147 | 35025 ft | 489 kts | 94° |
| 2026-04-15 11:36 | 55.63009 | 2.56218 | 35034 ft | 490 kts | 96° |
| 2026-04-15 11:37 | 55.61825 | 2.67848 | 35032 ft | 479 kts | 115° |
| 2026-04-15 11:37 | 55.59451 | 2.78836 | 35053 ft | 478 kts | 116° |
| 2026-04-15 11:38 | 55.57040 | 2.89837 | 35040 ft | 481 kts | 115° |
| 2026-04-15 11:38 | 55.54647 | 3.00920 | 35046 ft | 483 kts | 115° |
| 2026-04-15 11:39 | 55.52269 | 3.11996 | 35062 ft | 483 kts | 115° |
| 2026-04-15 11:39 | 55.49877 | 3.23103 | 35058 ft | 485 kts | 115° |
| 2026-04-15 11:40 | 55.47472 | 3.34204 | 35043 ft | 484 kts | 115° |
| 2026-04-15 11:40 | 55.45059 | 3.45277 | 35070 ft | 483 kts | 115° |
| 2026-04-15 11:41 | 55.42656 | 3.56235 | 35097 ft | 483 kts | 115° |
| 2026-04-15 11:41 | 55.40224 | 3.67269 | 35086 ft | 483 kts | 115° |
| 2026-04-15 11:42 | 55.37782 | 3.78292 | 35094 ft | 484 kts | 115° |
| 2026-04-15 11:42 | 55.35328 | 3.89308 | 35084 ft | 484 kts | 115° |
| 2026-04-15 11:43 | 55.32858 | 4.00337 | 35112 ft | 485 kts | 115° |
| 2026-04-15 11:43 | 55.30372 | 4.11382 | 35113 ft | 486 kts | 115° |
| 2026-04-15 11:44 | 55.27872 | 4.22432 | 35117 ft | 488 kts | 115° |
| 2026-04-15 11:44 | 55.25355 | 4.33499 | 35117 ft | 490 kts | 115° |
| 2026-04-15 11:45 | 55.22817 | 4.44597 | 35106 ft | 491 kts | 114° |
| 2026-04-15 11:45 | 55.20273 | 4.55668 | 35131 ft | 493 kts | 114° |
| 2026-04-15 11:46 | 55.17695 | 4.66824 | 35127 ft | 495 kts | 114° |
| 2026-04-15 11:46 | 55.15540 | 4.76108 | 35132 ft | 495 kts | 115° |
| 2026-04-15 11:47 | 55.12934 | 4.87282 | 35133 ft | 495 kts | 115° |
| 2026-04-15 11:47 | 55.10323 | 4.98416 | 35140 ft | 494 kts | 115° |
| 2026-04-15 11:48 | 55.07719 | 5.09467 | 35148 ft | 494 kts | 115° |
| 2026-04-15 11:48 | 55.05099 | 5.20529 | 35146 ft | 493 kts | 115° |
| 2026-04-15 11:49 | 55.02473 | 5.31565 | 35138 ft | 492 kts | 115° |
| 2026-04-15 11:49 | 54.99587 | 5.42321 | 35133 ft | 487 kts | 126° |
| 2026-04-15 11:50 | 54.95386 | 5.51406 | 35157 ft | 481 kts | 135° |
| 2026-04-15 11:50 | 54.90937 | 5.60024 | 35152 ft | 482 kts | 135° |
| 2026-04-15 11:51 | 54.86465 | 5.68747 | 35150 ft | 484 kts | 135° |
| 2026-04-15 11:51 | 54.81995 | 5.77531 | 35163 ft | 486 kts | 135° |
| 2026-04-15 11:52 | 54.77509 | 5.86348 | 35167 ft | 488 kts | 135° |
| 2026-04-15 11:52 | 54.73005 | 5.95168 | 35167 ft | 489 kts | 135° |
| 2026-04-15 11:53 | 54.68479 | 6.03997 | 35168 ft | 491 kts | 135° |
| 2026-04-15 11:53 | 54.63933 | 6.12826 | 35176 ft | 492 kts | 135° |
| 2026-04-15 11:54 | 54.59394 | 6.21611 | 35175 ft | 493 kts | 135° |
| 2026-04-15 11:54 | 54.54794 | 6.30483 | 35175 ft | 493 kts | 135° |
| 2026-04-15 11:55 | 54.50236 | 6.39241 | 35181 ft | 492 kts | 135° |
| 2026-04-15 11:55 | 54.45654 | 6.48017 | 35181 ft | 492 kts | 135° |
| 2026-04-15 11:56 | 54.41097 | 6.56708 | 35190 ft | 492 kts | 135° |
| 2026-04-15 11:56 | 54.36500 | 6.65444 | 35187 ft | 493 kts | 135° |
| 2026-04-15 11:57 | 54.29588 | 6.78524 | 35173 ft | 493 kts | 135° |
| 2026-04-15 11:58 | 54.25000 | 6.87166 | 35188 ft | 493 kts | 135° |
| 2026-04-15 11:58 | 54.20380 | 6.95840 | 35181 ft | 493 kts | 135° |
| 2026-04-15 11:59 | 54.15751 | 7.04495 | 35197 ft | 493 kts | 135° |
| 2026-04-15 11:59 | 54.11110 | 7.13143 | 35196 ft | 494 kts | 135° |
| 2026-04-15 12:00 | 54.06473 | 7.21753 | 35197 ft | 495 kts | 135° |
| 2026-04-15 12:00 | 54.01798 | 7.30399 | 35180 ft | 496 kts | 135° |
| 2026-04-15 12:01 | 53.97121 | 7.39026 | 35200 ft | 496 kts | 135° |
| 2026-04-15 12:01 | 53.92433 | 7.47641 | 35192 ft | 497 kts | 135° |
| 2026-04-15 12:02 | 53.87750 | 7.56214 | 35195 ft | 497 kts | 135° |
| 2026-04-15 12:02 | 53.83032 | 7.64821 | 35191 ft | 498 kts | 135° |
| 2026-04-15 12:03 | 53.78327 | 7.73375 | 35188 ft | 498 kts | 135° |
| 2026-04-15 12:03 | 53.73590 | 7.81956 | 35167 ft | 499 kts | 135° |
| 2026-04-15 12:04 | 53.68847 | 7.90523 | 35187 ft | 499 kts | 134° |
| 2026-04-15 12:04 | 53.64096 | 7.99049 | 35189 ft | 499 kts | 136° |
| 2026-04-15 12:05 | 53.58729 | 8.06350 | 35197 ft | 495 kts | 147° |
| 2026-04-15 12:05 | 53.53125 | 8.12971 | 35194 ft | 496 kts | 147° |
| 2026-04-15 12:06 | 53.47481 | 8.19654 | 35196 ft | 496 kts | 147° |
| 2026-04-15 12:06 | 53.41856 | 8.26382 | 35208 ft | 496 kts | 147° |
| 2026-04-15 12:07 | 53.36233 | 8.33128 | 35201 ft | 497 kts | 146° |
| 2026-04-15 12:07 | 53.30607 | 8.39859 | 35206 ft | 497 kts | 146° |
| 2026-04-15 12:08 | 53.24974 | 8.46570 | 35205 ft | 498 kts | 147° |
| 2026-04-15 12:08 | 53.19357 | 8.53238 | 35217 ft | 499 kts | 147° |
| 2026-04-15 12:09 | 53.13691 | 8.59942 | 35211 ft | 499 kts | 147° |
| 2026-04-15 12:09 | 53.08018 | 8.66632 | 35213 ft | 499 kts | 147° |
| 2026-04-15 12:10 | 53.02369 | 8.73272 | 35214 ft | 500 kts | 146° |
| 2026-04-15 12:10 | 52.96665 | 8.79954 | 35214 ft | 501 kts | 147° |
| 2026-04-15 12:11 | 52.90964 | 8.86610 | 35199 ft | 501 kts | 146° |
| 2026-04-15 12:11 | 52.85258 | 8.93252 | 35213 ft | 501 kts | 146° |
| 2026-04-15 12:12 | 52.79540 | 8.99885 | 35221 ft | 501 kts | 147° |
| 2026-04-15 12:12 | 52.73857 | 9.06456 | 35221 ft | 501 kts | 147° |
| 2026-04-15 12:13 | 52.68135 | 9.13051 | 35215 ft | 502 kts | 146° |
| 2026-04-15 12:13 | 52.62413 | 9.19623 | 35213 ft | 501 kts | 146° |
| 2026-04-15 12:14 | 52.56678 | 9.26190 | 35220 ft | 501 kts | 146° |
| 2026-04-15 12:14 | 52.50940 | 9.32739 | 35224 ft | 501 kts | 146° |
| 2026-04-15 12:15 | 52.45203 | 9.39266 | 35240 ft | 501 kts | 146° |
| 2026-04-15 12:15 | 52.39493 | 9.45740 | 35238 ft | 501 kts | 146° |
| 2026-04-15 12:16 | 52.33752 | 9.52230 | 35230 ft | 501 kts | 146° |
| 2026-04-15 12:16 | 52.28003 | 9.58707 | 35236 ft | 501 kts | 146° |
| 2026-04-15 12:17 | 52.22267 | 9.65149 | 35239 ft | 500 kts | 146° |
| 2026-04-15 12:17 | 52.16535 | 9.71567 | 35240 ft | 500 kts | 146° |
| 2026-04-15 12:18 | 52.10800 | 9.77967 | 35220 ft | 500 kts | 146° |
| 2026-04-15 12:18 | 52.05069 | 9.84343 | 35249 ft | 499 kts | 146° |
| 2026-04-15 12:19 | 51.99327 | 9.90709 | 35236 ft | 499 kts | 146° |
| 2026-04-15 12:19 | 51.93578 | 9.97065 | 35236 ft | 500 kts | 146° |
| 2026-04-15 12:20 | 51.87852 | 10.03375 | 35239 ft | 500 kts | 146° |
| 2026-04-15 12:20 | 51.82079 | 10.09716 | 35231 ft | 501 kts | 146° |
| 2026-04-15 12:21 | 51.76306 | 10.16037 | 35234 ft | 501 kts | 146° |
| 2026-04-15 12:21 | 51.70559 | 10.22311 | 35243 ft | 501 kts | 146° |
| 2026-04-15 12:22 | 51.64773 | 10.28609 | 35236 ft | 502 kts | 146° |
| 2026-04-15 12:22 | 51.58957 | 10.34918 | 35238 ft | 502 kts | 146° |
| 2026-04-15 12:23 | 51.53198 | 10.41147 | 35234 ft | 502 kts | 146° |
| 2026-04-15 12:23 | 51.47394 | 10.47408 | 35239 ft | 502 kts | 146° |
| 2026-04-15 12:24 | 51.41616 | 10.53761 | 35231 ft | 503 kts | 143° |
| 2026-04-15 12:24 | 51.36028 | 10.60477 | 35238 ft | 503 kts | 142° |
| 2026-04-15 12:25 | 51.30444 | 10.67271 | 35236 ft | 503 kts | 142° |
| 2026-04-15 12:25 | 51.24848 | 10.73976 | 35242 ft | 503 kts | 142° |
| 2026-04-15 12:26 | 51.19272 | 10.80580 | 35238 ft | 503 kts | 142° |
| 2026-04-15 12:26 | 51.13652 | 10.87203 | 35240 ft | 502 kts | 142° |
| 2026-04-15 12:27 | 51.08019 | 10.93825 | 35242 ft | 502 kts | 142° |
| 2026-04-15 12:27 | 51.02394 | 11.00419 | 35239 ft | 502 kts | 142° |
| 2026-04-15 12:28 | 50.96767 | 11.06998 | 35237 ft | 502 kts | 142° |
| 2026-04-15 12:28 | 50.91173 | 11.13518 | 35236 ft | 502 kts | 142° |
| 2026-04-15 12:29 | 50.85538 | 11.20064 | 35234 ft | 502 kts | 142° |
| 2026-04-15 12:29 | 50.79900 | 11.26594 | 35237 ft | 502 kts | 142° |
| 2026-04-15 12:30 | 50.74251 | 11.33118 | 35237 ft | 502 kts | 142° |
| 2026-04-15 12:30 | 50.68644 | 11.39573 | 35235 ft | 501 kts | 142° |
| 2026-04-15 12:31 | 50.62984 | 11.46069 | 35240 ft | 502 kts | 142° |
| 2026-04-15 12:31 | 50.57372 | 11.52490 | 35247 ft | 502 kts | 142° |
| 2026-04-15 12:32 | 50.51713 | 11.58947 | 35239 ft | 502 kts | 142° |
| 2026-04-15 12:32 | 50.46052 | 11.65385 | 35256 ft | 502 kts | 142° |
| 2026-04-15 12:33 | 50.41333 | 11.70738 | 35246 ft | 503 kts | 142° |
| 2026-04-15 12:33 | 50.35653 | 11.77163 | 35242 ft | 503 kts | 142° |
| 2026-04-15 12:34 | 50.30004 | 11.83534 | 35239 ft | 503 kts | 142° |
| 2026-04-15 12:34 | 50.24308 | 11.89938 | 35232 ft | 503 kts | 142° |
| 2026-04-15 12:35 | 50.18622 | 11.96314 | 35239 ft | 503 kts | 142° |
| 2026-04-15 12:35 | 50.12920 | 12.02690 | 35245 ft | 503 kts | 141° |
| 2026-04-15 12:36 | 50.07197 | 12.08977 | 35227 ft | 505 kts | 146° |
| 2026-04-15 12:36 | 50.00873 | 12.13634 | 35224 ft | 506 kts | 156° |
| 2026-04-15 12:37 | 49.94346 | 12.17796 | 35220 ft | 505 kts | 156° |
| 2026-04-15 12:37 | 49.87877 | 12.22054 | 35221 ft | 505 kts | 155° |
| 2026-04-15 12:38 | 49.81411 | 12.26347 | 35225 ft | 504 kts | 155° |
| 2026-04-15 12:38 | 49.74986 | 12.30548 | 35228 ft | 504 kts | 154° |
| 2026-04-15 12:39 | 49.68966 | 12.35900 | 35225 ft | 496 kts | 139° |
| 2026-04-15 12:39 | 49.63519 | 12.42443 | 35221 ft | 496 kts | 138° |
| 2026-04-15 12:40 | 49.58051 | 12.48940 | 35227 ft | 496 kts | 139° |
| 2026-04-15 12:40 | 49.52571 | 12.55317 | 35219 ft | 497 kts | 139° |
| 2026-04-15 12:41 | 49.47048 | 12.61710 | 35235 ft | 496 kts | 139° |
| 2026-04-15 12:41 | 49.41637 | 12.68288 | 35207 ft | 493 kts | 132° |
| 2026-04-15 12:42 | 49.36749 | 12.75643 | 35203 ft | 491 kts | 129° |
| 2026-04-15 12:42 | 49.32353 | 12.83568 | 35199 ft | 487 kts | 124° |
| 2026-04-15 12:43 | 49.28052 | 12.91582 | 35207 ft | 487 kts | 124° |
| 2026-04-15 12:43 | 49.23700 | 12.99562 | 35207 ft | 488 kts | 125° |
| 2026-04-15 12:44 | 49.19242 | 13.07367 | 35193 ft | 492 kts | 130° |
| 2026-04-15 12:44 | 49.14307 | 13.14617 | 35208 ft | 492 kts | 131° |
| 2026-04-15 12:45 | 49.09394 | 13.21916 | 35197 ft | 491 kts | 131° |
| 2026-04-15 12:45 | 49.04540 | 13.29154 | 35198 ft | 490 kts | 131° |
| 2026-04-15 12:46 | 48.99656 | 13.36415 | 35207 ft | 490 kts | 131° |
| 2026-04-15 12:46 | 48.94764 | 13.43663 | 35198 ft | 489 kts | 130° |
| 2026-04-15 12:47 | 48.89885 | 13.50870 | 35202 ft | 487 kts | 130° |
| 2026-04-15 12:47 | 48.85024 | 13.58045 | 35206 ft | 486 kts | 130° |
| 2026-04-15 12:48 | 48.80199 | 13.65163 | 35199 ft | 486 kts | 130° |
| 2026-04-15 12:48 | 48.75349 | 13.72298 | 35211 ft | 485 kts | 130° |
| 2026-04-15 12:49 | 48.70574 | 13.79410 | 35215 ft | 484 kts | 130° |
| 2026-04-15 12:49 | 48.65779 | 13.86583 | 35195 ft | 484 kts | 130° |
| 2026-04-15 12:50 | 48.60988 | 13.93724 | 35197 ft | 483 kts | 130° |
| 2026-04-15 12:50 | 48.56200 | 14.00829 | 35217 ft | 482 kts | 130° |
| 2026-04-15 12:51 | 48.51399 | 14.07931 | 35206 ft | 482 kts | 130° |
| 2026-04-15 12:51 | 48.46601 | 14.15007 | 35202 ft | 481 kts | 130° |
| 2026-04-15 12:52 | 48.41842 | 14.22006 | 35203 ft | 481 kts | 130° |
| 2026-04-15 12:52 | 48.37051 | 14.29032 | 35213 ft | 480 kts | 130° |
| 2026-04-15 12:53 | 48.32256 | 14.36047 | 35216 ft | 479 kts | 131° |
| 2026-04-15 12:53 | 48.27478 | 14.43016 | 35198 ft | 478 kts | 131° |
| 2026-04-15 12:54 | 48.22725 | 14.49929 | 35199 ft | 477 kts | 131° |
| 2026-04-15 12:54 | 48.17958 | 14.56844 | 35200 ft | 476 kts | 131° |
| 2026-04-15 12:55 | 48.13200 | 14.63728 | 35191 ft | 475 kts | 132° |
| 2026-04-15 12:55 | 48.08466 | 14.70560 | 35186 ft | 474 kts | 133° |
| 2026-04-15 12:56 | 48.03718 | 14.77392 | 35185 ft | 473 kts | 133° |
| 2026-04-15 12:56 | 47.98972 | 14.84202 | 35187 ft | 473 kts | 133° |
| 2026-04-15 12:57 | 47.94222 | 14.91000 | 35193 ft | 472 kts | 133° |
| 2026-04-15 12:57 | 47.89474 | 14.97778 | 35202 ft | 472 kts | 134° |
| 2026-04-15 12:58 | 47.84752 | 15.04498 | 35198 ft | 473 kts | 134° |
| 2026-04-15 12:58 | 47.79986 | 15.11267 | 35194 ft | 473 kts | 134° |
| 2026-04-15 12:59 | 47.72820 | 15.21408 | 35188 ft | 473 kts | 134° |
| 2026-04-15 12:59 | 47.68040 | 15.28150 | 35190 ft | 473 kts | 135° |
| 2026-04-15 13:00 | 47.63255 | 15.34881 | 35194 ft | 474 kts | 135° |
| 2026-04-15 13:00 | 47.58499 | 15.41554 | 35192 ft | 473 kts | 135° |
| 2026-04-15 13:01 | 47.53705 | 15.48261 | 35198 ft | 473 kts | 135° |
| 2026-04-15 13:01 | 47.48915 | 15.54945 | 35195 ft | 472 kts | 135° |
| 2026-04-15 13:02 | 47.44162 | 15.61561 | 35205 ft | 471 kts | 136° |
| 2026-04-15 13:02 | 47.39378 | 15.68203 | 35190 ft | 471 kts | 136° |
| 2026-04-15 13:03 | 47.34598 | 15.74821 | 35187 ft | 471 kts | 136° |
| 2026-04-15 13:03 | 47.29818 | 15.81423 | 35196 ft | 470 kts | 136° |
| 2026-04-15 13:04 | 47.25082 | 15.87946 | 35195 ft | 469 kts | 136° |
| 2026-04-15 13:04 | 47.20310 | 15.94502 | 35199 ft | 468 kts | 137° |
| 2026-04-15 13:05 | 47.15539 | 16.01041 | 35189 ft | 468 kts | 137° |
| 2026-04-15 13:05 | 47.10774 | 16.07556 | 35187 ft | 468 kts | 137° |
| 2026-04-15 13:06 | 47.06005 | 16.14060 | 35189 ft | 467 kts | 138° |
| 2026-04-15 13:06 | 47.01240 | 16.20543 | 35185 ft | 467 kts | 138° |
| 2026-04-15 13:07 | 46.96525 | 16.27112 | 35188 ft | 467 kts | 136° |
| 2026-04-15 13:07 | 46.91969 | 16.33822 | 35188 ft | 468 kts | 135° |
| 2026-04-15 13:08 | 46.87387 | 16.40587 | 35188 ft | 468 kts | 135° |
| 2026-04-15 13:08 | 46.82781 | 16.47321 | 35184 ft | 468 kts | 136° |
| 2026-04-15 13:09 | 46.78152 | 16.54041 | 35181 ft | 469 kts | 137° |
| 2026-04-15 13:09 | 46.73535 | 16.60717 | 35188 ft | 469 kts | 137° |
| 2026-04-15 13:10 | 46.68886 | 16.67423 | 35187 ft | 470 kts | 137° |
| 2026-04-15 13:10 | 46.64219 | 16.74141 | 35191 ft | 471 kts | 137° |
| 2026-04-15 13:11 | 46.59574 | 16.80809 | 35190 ft | 472 kts | 137° |
| 2026-04-15 13:11 | 46.54890 | 16.87517 | 35183 ft | 473 kts | 137° |
| 2026-04-15 13:12 | 46.50198 | 16.94218 | 35176 ft | 473 kts | 137° |
| 2026-04-15 13:12 | 46.45482 | 17.00938 | 35185 ft | 474 kts | 137° |
| 2026-04-15 13:13 | 46.40801 | 17.07589 | 35181 ft | 474 kts | 137° |
| 2026-04-15 13:13 | 46.36081 | 17.14280 | 35182 ft | 474 kts | 138° |
| 2026-04-15 13:14 | 46.31366 | 17.20947 | 35177 ft | 473 kts | 138° |
| 2026-04-15 13:14 | 46.26648 | 17.27601 | 35172 ft | 472 kts | 138° |
| 2026-04-15 13:15 | 46.21939 | 17.34226 | 35171 ft | 471 kts | 138° |
| 2026-04-15 13:15 | 46.17281 | 17.40761 | 35174 ft | 469 kts | 139° |
| 2026-04-15 13:16 | 46.12597 | 17.47318 | 35171 ft | 468 kts | 139° |
| 2026-04-15 13:16 | 46.07924 | 17.53841 | 35175 ft | 467 kts | 139° |
| 2026-04-15 13:17 | 46.03250 | 17.60350 | 35174 ft | 466 kts | 139° |
| 2026-04-15 13:17 | 45.98585 | 17.66831 | 35165 ft | 465 kts | 139° |
| 2026-04-15 13:18 | 45.93926 | 17.73288 | 35168 ft | 465 kts | 139° |
| 2026-04-15 13:18 | 45.89263 | 17.79734 | 35173 ft | 465 kts | 139° |
| 2026-04-15 13:19 | 45.85379 | 17.85091 | 35176 ft | 465 kts | 139° |
| 2026-04-15 13:19 | 45.79943 | 17.92570 | 35174 ft | 466 kts | 139° |
| 2026-04-15 13:20 | 45.76044 | 17.97922 | 35171 ft | 467 kts | 139° |
| 2026-04-15 13:20 | 45.71344 | 18.04357 | 35170 ft | 468 kts | 139° |
| 2026-04-15 13:21 | 45.66633 | 18.10794 | 35181 ft | 469 kts | 139° |
| 2026-04-15 13:21 | 45.61893 | 18.17253 | 35169 ft | 471 kts | 139° |
| 2026-04-15 13:22 | 45.57172 | 18.23672 | 35163 ft | 471 kts | 139° |
| 2026-04-15 13:22 | 45.52411 | 18.30129 | 35165 ft | 472 kts | 139° |
| 2026-04-15 13:23 | 45.47636 | 18.36589 | 35170 ft | 473 kts | 139° |
| 2026-04-15 13:23 | 45.42849 | 18.43050 | 35165 ft | 473 kts | 139° |
| 2026-04-15 13:24 | 45.38060 | 18.49498 | 35163 ft | 474 kts | 139° |
| 2026-04-15 13:24 | 45.33294 | 18.55900 | 35160 ft | 474 kts | 139° |
| 2026-04-15 13:25 | 45.28495 | 18.62331 | 35162 ft | 474 kts | 139° |
| 2026-04-15 13:25 | 45.23641 | 18.68688 | 35165 ft | 473 kts | 141° |
| 2026-04-15 13:26 | 45.18713 | 18.74877 | 35164 ft | 473 kts | 141° |
| 2026-04-15 13:26 | 45.13802 | 18.81018 | 35166 ft | 472 kts | 141° |
| 2026-04-15 13:27 | 45.08881 | 18.87188 | 35159 ft | 471 kts | 141° |
| 2026-04-15 13:27 | 45.04002 | 18.93311 | 35165 ft | 471 kts | 141° |
| 2026-04-15 13:28 | 44.99100 | 18.99453 | 35162 ft | 470 kts | 141° |
| 2026-04-15 13:28 | 44.94204 | 19.05571 | 35163 ft | 469 kts | 141° |
| 2026-04-15 13:29 | 44.89304 | 19.11679 | 35158 ft | 468 kts | 141° |
| 2026-04-15 13:29 | 44.84423 | 19.17749 | 35159 ft | 467 kts | 141° |
| 2026-04-15 13:30 | 44.79551 | 19.23793 | 35159 ft | 466 kts | 141° |
| 2026-04-15 13:30 | 44.74685 | 19.29816 | 35153 ft | 465 kts | 141° |
| 2026-04-15 13:31 | 44.69849 | 19.35788 | 35146 ft | 465 kts | 141° |
| 2026-04-15 13:31 | 44.64992 | 19.41772 | 35149 ft | 463 kts | 141° |
| 2026-04-15 13:32 | 44.60145 | 19.47729 | 35148 ft | 462 kts | 141° |
| 2026-04-15 13:32 | 44.55332 | 19.53632 | 35148 ft | 462 kts | 141° |
| 2026-04-15 13:33 | 44.50485 | 19.59563 | 35138 ft | 461 kts | 141° |
| 2026-04-15 13:33 | 44.45646 | 19.65470 | 35147 ft | 461 kts | 141° |
| 2026-04-15 13:34 | 44.40832 | 19.71333 | 35140 ft | 461 kts | 141° |
| 2026-04-15 13:34 | 44.35996 | 19.77209 | 35134 ft | 460 kts | 141° |
| 2026-04-15 13:35 | 44.31161 | 19.83071 | 35127 ft | 460 kts | 141° |
| 2026-04-15 13:35 | 44.26317 | 19.88930 | 35128 ft | 460 kts | 141° |
| 2026-04-15 13:36 | 44.21479 | 19.94771 | 35124 ft | 460 kts | 141° |
| 2026-04-15 13:36 | 44.16641 | 20.00597 | 35114 ft | 459 kts | 141° |
| 2026-04-15 13:37 | 44.11802 | 20.06411 | 35110 ft | 459 kts | 141° |
| 2026-04-15 13:37 | 44.06953 | 20.12223 | 35118 ft | 459 kts | 141° |
| 2026-04-15 13:38 | 44.02144 | 20.17976 | 35109 ft | 459 kts | 141° |
| 2026-04-15 13:38 | 43.97290 | 20.23769 | 35107 ft | 460 kts | 142° |
| 2026-04-15 13:39 | 43.92425 | 20.29562 | 35093 ft | 460 kts | 141° |
| 2026-04-15 13:39 | 43.87562 | 20.35341 | 35098 ft | 460 kts | 142° |
| 2026-04-15 13:40 | 43.82687 | 20.41119 | 35104 ft | 461 kts | 142° |
| 2026-04-15 13:40 | 43.77814 | 20.46884 | 35104 ft | 461 kts | 142° |
| 2026-04-15 13:41 | 43.72961 | 20.52612 | 35105 ft | 461 kts | 142° |
| 2026-04-15 13:41 | 43.68076 | 20.58365 | 35096 ft | 461 kts | 142° |
| 2026-04-15 13:42 | 43.63174 | 20.64126 | 35092 ft | 461 kts | 142° |
| 2026-04-15 13:42 | 43.58282 | 20.69861 | 35092 ft | 461 kts | 142° |
| 2026-04-15 13:43 | 43.53416 | 20.75555 | 35091 ft | 461 kts | 142° |
| 2026-04-15 13:43 | 43.48525 | 20.81267 | 35091 ft | 460 kts | 142° |
| 2026-04-15 13:44 | 43.43641 | 20.86957 | 35089 ft | 459 kts | 143° |
| 2026-04-15 13:44 | 43.38428 | 20.91792 | 35110 ft | 452 kts | 155° |
| 2026-04-15 13:45 | 43.32855 | 20.95823 | 35109 ft | 452 kts | 155° |
| 2026-04-15 13:47 | 43.10636 | 21.12033 | 35104 ft | 453 kts | 155° |
| 2026-04-15 13:47 | 43.05066 | 21.16107 | 35100 ft | 454 kts | 155° |
| 2026-04-15 13:48 | 42.99484 | 21.20181 | 35113 ft | 455 kts | 156° |
| 2026-04-15 13:48 | 42.93924 | 21.24230 | 35114 ft | 456 kts | 156° |
| 2026-04-15 13:49 | 42.88307 | 21.28312 | 35109 ft | 457 kts | 156° |
| 2026-04-15 13:49 | 42.82678 | 21.32394 | 35107 ft | 458 kts | 156° |
| 2026-04-15 13:50 | 42.77045 | 21.36472 | 35113 ft | 458 kts | 156° |
| 2026-04-15 13:50 | 42.71447 | 21.40514 | 35121 ft | 458 kts | 156° |
| 2026-04-15 13:51 | 42.65809 | 21.44577 | 35116 ft | 458 kts | 156° |
| 2026-04-15 13:51 | 42.60175 | 21.48630 | 35131 ft | 458 kts | 156° |
| 2026-04-15 13:52 | 42.54544 | 21.52671 | 35121 ft | 457 kts | 156° |
| 2026-04-15 13:52 | 42.48917 | 21.56701 | 35129 ft | 457 kts | 156° |
| 2026-04-15 13:53 | 42.43334 | 21.60692 | 35136 ft | 456 kts | 156° |
| 2026-04-15 13:53 | 42.37708 | 21.64705 | 35137 ft | 456 kts | 156° |
| 2026-04-15 13:54 | 42.32101 | 21.68697 | 35142 ft | 455 kts | 156° |
| 2026-04-15 13:54 | 42.26500 | 21.72676 | 35152 ft | 454 kts | 157° |
| 2026-04-15 13:55 | 42.20929 | 21.76625 | 35156 ft | 455 kts | 157° |
| 2026-04-15 13:55 | 42.15317 | 21.80596 | 35154 ft | 456 kts | 157° |
| 2026-04-15 13:56 | 42.09688 | 21.84571 | 35159 ft | 456 kts | 157° |
| 2026-04-15 13:56 | 42.04056 | 21.88540 | 35165 ft | 457 kts | 157° |
| 2026-04-15 13:57 | 41.98413 | 21.92509 | 35166 ft | 457 kts | 157° |
| 2026-04-15 13:57 | 41.92774 | 21.96467 | 35175 ft | 458 kts | 157° |
| 2026-04-15 13:58 | 41.87153 | 22.00404 | 35166 ft | 458 kts | 157° |
| 2026-04-15 13:58 | 41.81497 | 22.04359 | 35174 ft | 459 kts | 157° |
| 2026-04-15 13:59 | 41.75823 | 22.08318 | 35177 ft | 459 kts | 157° |
| 2026-04-15 13:59 | 41.70160 | 22.12261 | 35167 ft | 459 kts | 157° |
| 2026-04-15 14:00 | 41.64494 | 22.16199 | 35167 ft | 459 kts | 157° |
| 2026-04-15 14:00 | 41.58831 | 22.20126 | 35170 ft | 458 kts | 157° |
| 2026-04-15 14:01 | 41.50334 | 22.26004 | 35174 ft | 458 kts | 157° |
| 2026-04-15 14:02 | 41.44668 | 22.29912 | 35171 ft | 458 kts | 157° |
| 2026-04-15 14:02 | 41.39056 | 22.33780 | 35167 ft | 457 kts | 157° |
| 2026-04-15 14:03 | 41.33420 | 22.37655 | 35175 ft | 455 kts | 157° |
| 2026-04-15 14:03 | 41.27796 | 22.41513 | 35179 ft | 454 kts | 157° |
| 2026-04-15 14:04 | 41.22177 | 22.45361 | 35183 ft | 454 kts | 158° |
| 2026-04-15 14:04 | 41.16596 | 22.49177 | 35167 ft | 453 kts | 158° |
| 2026-04-15 14:05 | 41.10981 | 22.53027 | 35176 ft | 454 kts | 158° |
| 2026-04-15 14:05 | 41.05418 | 22.56982 | 35183 ft | 454 kts | 157° |
| 2026-04-15 14:06 | 40.99849 | 22.60971 | 35187 ft | 457 kts | 157° |
| 2026-04-15 14:06 | 40.95187 | 22.64291 | 35165 ft | 457 kts | 157° |
| 2026-04-15 14:07 | 40.88680 | 22.68906 | 35174 ft | 455 kts | 158° |
| 2026-04-15 14:07 | 40.84006 | 22.72212 | 35172 ft | 454 kts | 158° |
| 2026-04-15 14:08 | 40.78480 | 22.76112 | 35169 ft | 453 kts | 158° |
| 2026-04-15 14:08 | 40.72926 | 22.80024 | 35161 ft | 452 kts | 159° |
| 2026-04-15 14:09 | 40.67365 | 22.83933 | 35170 ft | 452 kts | 158° |
| 2026-04-15 14:09 | 40.61821 | 22.87826 | 35135 ft | 444 kts | 158° |
| 2026-04-15 14:09 | 40.59138 | 22.89714 | 35144 ft | 429 kts | 158° |
| 2026-04-15 14:10 | 40.56549 | 22.91533 | 35132 ft | 415 kts | 158° |
| 2026-04-15 14:10 | 40.54044 | 22.93287 | 35136 ft | 401 kts | 159° |
| 2026-04-15 14:10 | 40.51608 | 22.94988 | 35139 ft | 389 kts | 159° |
| 2026-04-15 14:10 | 40.49259 | 22.96628 | 35132 ft | 375 kts | 159° |
| 2026-04-15 14:11 | 40.47004 | 22.98200 | 35148 ft | 371 kts | 159° |
| 2026-04-15 14:11 | 40.42254 | 23.00975 | 35181 ft | 377 kts | 166° |
| 2026-04-15 14:12 | 40.37270 | 23.03374 | 34926 ft | 380 kts | 167° |
| 2026-04-15 14:12 | 40.34793 | 23.04574 | 34497 ft | 379 kts | 167° |
| 2026-04-15 14:12 | 40.32303 | 23.05790 | 33762 ft | 387 kts | 167° |
| 2026-04-15 14:12 | 40.29730 | 23.07050 | 32519 ft | 401 kts | 166° |
| 2026-04-15 14:13 | 40.27101 | 23.08346 | 31035 ft | 418 kts | 166° |
| 2026-04-15 14:13 | 40.24324 | 23.09721 | 29454 ft | 434 kts | 165° |
| 2026-04-15 14:13 | 40.21464 | 23.11144 | 27858 ft | 443 kts | 163° |
| 2026-04-15 14:13 | 40.18570 | 23.12589 | 26382 ft | 449 kts | 163° |
| 2026-04-15 14:14 | 40.15636 | 23.14050 | 25084 ft | 452 kts | 162° |
| 2026-04-15 14:14 | 40.12709 | 23.15503 | 24271 ft | 448 kts | 162° |
| 2026-04-15 14:14 | 40.09783 | 23.16949 | 23393 ft | 450 kts | 162° |
| 2026-04-15 14:14 | 40.06847 | 23.18397 | 22442 ft | 451 kts | 161° |
| 2026-04-15 14:15 | 40.03903 | 23.19848 | 21493 ft | 451 kts | 161° |
| 2026-04-15 14:15 | 40.00964 | 23.21296 | 20589 ft | 451 kts | 161° |
| 2026-04-15 14:15 | 39.98032 | 23.22741 | 19939 ft | 446 kts | 161° |
| 2026-04-15 14:15 | 39.95195 | 23.24139 | 19838 ft | 427 kts | 161° |
| 2026-04-15 14:16 | 39.92474 | 23.25479 | 19727 ft | 410 kts | 161° |
| 2026-04-15 14:16 | 39.89883 | 23.26750 | 19594 ft | 396 kts | 161° |
| 2026-04-15 14:16 | 39.87340 | 23.27989 | 19435 ft | 384 kts | 161° |
| 2026-04-15 14:16 | 39.84859 | 23.29193 | 19032 ft | 379 kts | 161° |
| 2026-04-15 14:17 | 39.82369 | 23.30400 | 18356 ft | 383 kts | 161° |
| 2026-04-15 14:17 | 39.79862 | 23.31615 | 17629 ft | 386 kts | 161° |
| 2026-04-15 14:17 | 39.77340 | 23.32839 | 16911 ft | 388 kts | 161° |
| 2026-04-15 14:17 | 39.74805 | 23.34068 | 16205 ft | 388 kts | 161° |
| 2026-04-15 14:18 | 39.72299 | 23.35284 | 15524 ft | 389 kts | 161° |
| 2026-04-15 14:18 | 39.69755 | 23.36526 | 14845 ft | 389 kts | 160° |
| 2026-04-15 14:18 | 39.67223 | 23.37765 | 14183 ft | 389 kts | 160° |
| 2026-04-15 14:18 | 39.64689 | 23.39004 | 13474 ft | 388 kts | 160° |
| 2026-04-15 14:19 | 39.62159 | 23.40242 | 12741 ft | 387 kts | 160° |
| 2026-04-15 14:19 | 39.59647 | 23.41468 | 12030 ft | 385 kts | 160° |
| 2026-04-15 14:19 | 39.57180 | 23.42672 | 11338 ft | 378 kts | 161° |
| 2026-04-15 14:19 | 39.54764 | 23.43851 | 10819 ft | 361 kts | 161° |
| 2026-04-15 14:20 | 39.52477 | 23.44966 | 10395 ft | 344 kts | 161° |
| 2026-04-15 14:20 | 39.50281 | 23.46035 | 9972 ft | 329 kts | 161° |
| 2026-04-15 14:20 | 39.48185 | 23.47054 | 9523 ft | 316 kts | 161° |
| 2026-04-15 14:20 | 39.46155 | 23.48039 | 9180 ft | 303 kts | 161° |
| 2026-04-15 14:21 | 39.44229 | 23.48974 | 9150 ft | 293 kts | 161° |
| 2026-04-15 14:21 | 39.42323 | 23.49898 | 9146 ft | 293 kts | 161° |
| 2026-04-15 14:21 | 39.40416 | 23.50820 | 9109 ft | 293 kts | 161° |
| 2026-04-15 14:21 | 39.38504 | 23.51744 | 8893 ft | 292 kts | 161° |
| 2026-04-15 14:22 | 39.36625 | 23.52651 | 8648 ft | 284 kts | 161° |
| 2026-04-15 14:22 | 39.34830 | 23.53518 | 8397 ft | 273 kts | 161° |
| 2026-04-15 14:22 | 39.33072 | 23.54367 | 8128 ft | 265 kts | 161° |
| 2026-04-15 14:22 | 39.31348 | 23.55199 | 7700 ft | 265 kts | 160° |
| 2026-04-15 14:23 | 39.29620 | 23.56031 | 7286 ft | 265 kts | 160° |
| 2026-04-15 14:23 | 39.27889 | 23.56865 | 6883 ft | 265 kts | 160° |
| 2026-04-15 14:23 | 39.26185 | 23.57686 | 6423 ft | 265 kts | 160° |
| 2026-04-15 14:23 | 39.24433 | 23.58529 | 5914 ft | 263 kts | 159° |
| 2026-04-15 14:24 | 39.22743 | 23.59342 | 5393 ft | 256 kts | 159° |
| 2026-04-15 14:24 | 39.21091 | 23.60135 | 4874 ft | 250 kts | 158° |
| 2026-04-15 14:24 | 39.19493 | 23.60899 | 4347 ft | 247 kts | 160° |
| 2026-04-15 14:24 | 39.17801 | 23.61130 | 3790 ft | 247 kts | 191° |
| 2026-04-15 14:25 | 39.16361 | 23.60104 | 3600 ft | 234 kts | 228° |
| 2026-04-15 14:25 | 39.15827 | 23.58252 | 3506 ft | 216 kts | 274° |
| 2026-04-15 14:25 | 39.15669 | 23.56373 | 3702 ft | 210 kts | 246° |
| 2026-04-15 14:25 | 39.14840 | 23.54869 | 3959 ft | 206 kts | 219° |
| 2026-04-15 14:26 | 39.13610 | 23.53973 | 4069 ft | 199 kts | 193° |
| 2026-04-15 14:26 | 39.12243 | 23.53813 | 4380 ft | 208 kts | 166° |
| 2026-04-15 14:26 | 39.10949 | 23.54701 | 4721 ft | 216 kts | 135° |
| 2026-04-15 14:26 | 39.09935 | 23.56115 | 4989 ft | 215 kts | 131° |
| 2026-04-15 14:27 | 39.08951 | 23.57578 | 4985 ft | 215 kts | 130° |
| 2026-04-15 14:27 | 39.07976 | 23.59042 | 4991 ft | 215 kts | 130° |
| 2026-04-15 14:27 | 39.07005 | 23.60505 | 5000 ft | 215 kts | 130° |
| 2026-04-15 14:27 | 39.06034 | 23.61972 | 5003 ft | 216 kts | 130° |
| 2026-04-15 14:28 | 39.05130 | 23.63479 | 4989 ft | 216 kts | 117° |
| 2026-04-15 14:28 | 39.04871 | 23.65374 | 5010 ft | 222 kts | 84° |
| 2026-04-15 14:28 | 39.05506 | 23.67197 | 5006 ft | 229 kts | 51° |
| 2026-04-15 14:28 | 39.06751 | 23.68467 | 5008 ft | 228 kts | 37° |
| 2026-04-15 14:29 | 39.08083 | 23.69567 | 4991 ft | 228 kts | 35° |
| 2026-04-15 14:29 | 39.09434 | 23.70670 | 4987 ft | 230 kts | 36° |
| 2026-04-15 14:29 | 39.10788 | 23.71787 | 4998 ft | 232 kts | 35° |
| 2026-04-15 14:29 | 39.12157 | 23.72897 | 4942 ft | 233 kts | 35° |
| 2026-04-15 14:30 | 39.13528 | 23.74001 | 4806 ft | 231 kts | 35° |
| 2026-04-15 14:30 | 39.14871 | 23.75083 | 4642 ft | 229 kts | 35° |
| 2026-04-15 14:30 | 39.16208 | 23.76159 | 4505 ft | 224 kts | 35° |
| 2026-04-15 14:30 | 39.17558 | 23.77154 | 4349 ft | 224 kts | 22° |
| 2026-04-15 14:31 | 39.19093 | 23.77294 | 4193 ft | 224 kts | 348° |
| 2026-04-15 14:31 | 39.20427 | 23.76305 | 4059 ft | 225 kts | 313° |
| 2026-04-15 14:31 | 39.21247 | 23.74566 | 4024 ft | 228 kts | 296° |
| 2026-04-15 14:31 | 39.21924 | 23.72759 | 4004 ft | 225 kts | 295° |
| 2026-04-15 14:32 | 39.22591 | 23.70948 | 3995 ft | 223 kts | 295° |
| 2026-04-15 14:32 | 39.23223 | 23.69118 | 3995 ft | 224 kts | 286° |
| 2026-04-15 14:32 | 39.23219 | 23.67153 | 4004 ft | 220 kts | 249° |
| 2026-04-15 14:32 | 39.22385 | 23.65554 | 4012 ft | 215 kts | 219° |
| 2026-04-15 14:33 | 39.21188 | 23.64405 | 4016 ft | 214 kts | 212° |
| 2026-04-15 14:33 | 39.19967 | 23.63301 | 4014 ft | 214 kts | 212° |
| 2026-04-15 14:33 | 39.18744 | 23.62193 | 4010 ft | 215 kts | 212° |
| 2026-04-15 14:33 | 39.17484 | 23.61154 | 3998 ft | 215 kts | 206° |
| 2026-04-15 14:34 | 39.16155 | 23.60278 | 4002 ft | 214 kts | 204° |
| 2026-04-15 14:34 | 39.14819 | 23.59424 | 3994 ft | 214 kts | 203° |
| 2026-04-15 14:34 | 39.13480 | 23.58566 | 3816 ft | 215 kts | 204° |
| 2026-04-15 14:34 | 39.12160 | 23.57717 | 3506 ft | 208 kts | 204° |
| 2026-04-15 14:35 | 39.10918 | 23.56912 | 3211 ft | 195 kts | 205° |
| 2026-04-15 14:35 | 39.09741 | 23.56146 | 2962 ft | 185 kts | 205° |
| 2026-04-15 14:35 | 39.08612 | 23.55412 | 2764 ft | 181 kts | 205° |
| 2026-04-15 14:35 | 39.07477 | 23.54674 | 2501 ft | 184 kts | 205° |
| 2026-04-15 14:36 | 39.06338 | 23.53932 | 2275 ft | 183 kts | 205° |
| 2026-04-15 14:36 | 39.05197 | 23.53188 | 2128 ft | 188 kts | 206° |
| 2026-04-15 14:36 | 39.04003 | 23.52411 | 2049 ft | 195 kts | 206° |
| 2026-04-15 14:36 | 39.02817 | 23.51582 | 1991 ft | 193 kts | 216° |
| 2026-04-15 14:37 | 39.02056 | 23.50185 | 2006 ft | 193 kts | 255° |
| 2026-04-15 14:37 | 39.02083 | 23.48498 | 2010 ft | 189 kts | 291° |
| 2026-04-15 14:37 | 39.02827 | 23.47156 | 1997 ft | 185 kts | 326° |
| 2026-04-15 14:37 | 39.03997 | 23.46549 | 2001 ft | 181 kts | 353° |
| 2026-04-15 14:38 | 39.05191 | 23.46446 | 1926 ft | 168 kts | 4° |
| 2026-04-15 14:38 | 39.06327 | 23.46573 | 1809 ft | 159 kts | 8° |
| 2026-04-15 14:38 | 39.07429 | 23.46710 | 1710 ft | 159 kts | 6° |
| 2026-04-15 14:38 | 39.08519 | 23.46808 | 1582 ft | 152 kts | 6° |
| 2026-04-15 14:39 | 39.09542 | 23.46929 | 1592 ft | 146 kts | 9° |
| 2026-04-15 14:39 | 39.10544 | 23.47164 | 1503 ft | 145 kts | 15° |
| 2026-04-15 14:39 | 39.11503 | 23.47533 | 1345 ft | 143 kts | 21° |
| 2026-04-15 14:39 | 39.12421 | 23.47975 | 1214 ft | 139 kts | 22° |
| 2026-04-15 14:40 | 39.13328 | 23.48397 | 1021 ft | 139 kts | 21° |
| 2026-04-15 14:40 | 39.14231 | 23.48805 | 698 ft | 135 kts | 19° |
| 2026-04-15 14:40 | 39.15106 | 23.49222 | 463 ft | 134 kts | 16° |
| 2026-04-15 14:40 | 39.15976 | 23.49589 | 262 ft | 133 kts | 17° |
| 2026-04-15 14:41 | 39.16844 | 23.49972 | 69 ft | 129 kts | 17° |
| 2026-04-15 14:41 | 39.17644 | 23.50328 | 39 ft | 98 kts | 19° |
| 2026-04-15 14:41 | 39.18051 | 23.50508 | 45 ft | 14 kts | 18° |
| 2026-04-15 14:41 | 39.18069 | 23.50515 | 45 ft | 6 kts | 18° |
| 2026-04-15 14:42 | 39.18138 | 23.50546 | 48 ft | 15 kts | 19° |
| 2026-04-15 14:42 | 39.18261 | 23.50601 | 51 ft | 22 kts | 19° |
| 2026-04-15 14:42 | 39.18430 | 23.50675 | 56 ft | 24 kts | 18° |
| 2026-04-15 14:42 | 39.18513 | 23.50741 | 60 ft | 6 kts | 344° |
| 2026-04-15 14:43 | 39.18505 | 23.50699 | 57 ft | 7 kts | 195° |
| 2026-04-15 14:43 | 39.18446 | 23.50686 | 56 ft | 11 kts | 195° |
| 2026-04-15 14:43 | 39.18353 | 23.50643 | 58 ft | 19 kts | 199° |
| 2026-04-15 14:43 | 39.18205 | 23.50576 | 52 ft | 27 kts | 199° |
| 2026-04-15 14:44 | 39.18008 | 23.50489 | 44 ft | 24 kts | 198° |
| 2026-04-15 14:44 | 39.17929 | 23.50400 | 41 ft | 14 kts | 243° |
| 2026-04-15 14:44 | 39.17899 | 23.50321 | 37 ft | 9 kts | 249° |
| 2026-04-15 14:44 | 39.17909 | 23.50258 | 36 ft | 6 kts | 289° |
| 2026-04-15 14:45 | 39.17915 | 23.50231 | 38 ft | 1 kts | 285° |